Whanganui (NZWU)

Aerodrome — Elev 27
New Zealand
S039.57.43.999 E175.01.31.001
Loading chart...

Note: Prior to May 2016, this airport was known by the earlier spelling 'Wanganui'.

Current Weather

NZWU 121030Z 30010KT 20KM SCT020 BKN039 16/15 Q1006 RMK AUTO VATSIM USE ONLY

Published 37 minutes ago

Airport Activity

Loading chart...
Loading chart...

Standard ATC Positions

CallsignRadio Name / Freq / Voice Room / TypeFrequencyType
NZOH_CTR Ohakea Control
126.200
nzoh_ctr
126.200
NZOH_APP Ohakea Approach
125.100
nzoh_app
125.100
NZOH_GND Ohakea Ground
122.100
nzoh_gnd
122.100
NZPM_GND Palmerston Ground
121.700
nzpm_gnd
121.700
UNICOM NZZC UNICOM
122.800
unicom_nzzc
122.800

Event ATC Positions

This airport has additional control positions that are designated for use only during major events.
These non-standard positions must not be staffed unless specifically activated by the VATNZ Airspace Director as part of an official VATNZ event.
At all other times, controllers should use the designated Standard ATC Positions.

CallsignRadio Name / Freq / Voice Room / TypeFrequencyType
NZCH-D_CTR Christchurch Director
129.200
nzch-d_ctr
129.200

Charts